createdAt,value
2024-02-04T00:00:12.133Z,100849.78
2024-02-04T00:00:44.176Z,100860.03
2024-02-04T00:01:16.231Z,100848.63
2024-02-04T00:01:48.551Z,100857.38
2024-02-04T00:02:24.955Z,100859.06
2024-02-04T00:02:57.842Z,100853.75
2024-02-04T00:03:29.735Z,100849.47
2024-02-04T00:04:01.722Z,100860.63
2024-02-04T00:04:34.025Z,100855.28
2024-02-04T00:05:05.957Z,100852.69
2024-02-04T00:05:37.728Z,100861.34
2024-02-04T00:06:09.551Z,100863.91
2024-02-04T00:06:41.484Z,100865.63
2024-02-04T00:07:13.331Z,100857.88
2024-02-04T00:07:45.507Z,100854.38
2024-02-04T00:08:18.304Z,100865.59
2024-02-04T00:08:50.309Z,100868.97
2024-02-04T00:09:22.328Z,100858.53
2024-02-04T00:09:54.197Z,100856.84
2024-02-04T00:10:27.863Z,100858.53
2024-02-04T00:11:00.088Z,100853.34
2024-02-04T00:11:31.893Z,100860.16
2024-02-04T00:12:05.270Z,100856.78
2024-02-04T00:12:37.376Z,100856.72
2024-02-04T00:13:09.258Z,100861.91
2024-02-04T00:13:41.056Z,100858.28
2024-02-04T00:14:13.583Z,100851.31
2024-02-04T00:14:45.390Z,100853.91
2024-02-04T00:15:17.216Z,100862.50
2024-02-04T00:15:49.017Z,100848.78
2024-02-04T00:16:20.878Z,100855.53
2024-02-04T00:16:52.689Z,100857.28
2024-02-04T00:17:24.605Z,100854.88
2024-02-04T00:17:56.589Z,100855.69
2024-02-04T00:18:28.587Z,100852.94
2024-02-04T00:19:00.635Z,100859.81
2024-02-04T00:19:32.646Z,100856.44
2024-02-04T00:20:06.792Z,100862.56
2024-02-04T00:20:38.773Z,100850.47
2024-02-04T00:21:10.717Z,100857.38
2024-02-04T00:21:42.534Z,100858.13
2024-02-04T00:22:14.451Z,100854.88
2024-02-04T00:22:46.288Z,100847.88
2024-02-04T00:23:18.224Z,100845.38
2024-02-04T00:23:50.035Z,100849.81
2024-02-04T00:24:22.120Z,100853.19
2024-02-04T00:24:54.851Z,100848.13
2024-02-04T00:25:26.725Z,100847.97
2024-02-04T00:25:58.724Z,100848.81
2024-02-04T00:26:30.487Z,100844.59
2024-02-04T00:27:02.340Z,100842.84
2024-02-04T00:27:34.561Z,100847.13
2024-02-04T00:28:06.689Z,100845.44
2024-02-04T00:28:38.539Z,100840.38
2024-02-04T00:29:10.301Z,100841.34
2024-02-04T00:29:42.113Z,100846.56
2024-02-04T00:30:14.103Z,100840.47
2024-02-04T00:30:45.958Z,100842.16
2024-02-04T00:31:17.835Z,100840.38
2024-02-04T00:31:49.780Z,100842.16
2024-02-04T00:32:21.742Z,100844.75
2024-02-04T00:32:53.613Z,100841.41
2024-02-04T00:33:25.619Z,100839.66
2024-02-04T00:33:57.584Z,100846.63
2024-02-04T00:34:29.522Z,100844.16
2024-02-04T00:35:01.456Z,100843.19
2024-02-04T00:35:33.346Z,100838.03
2024-02-04T00:36:05.374Z,100848.38
2024-02-04T00:36:37.397Z,100838.75
2024-02-04T00:37:09.274Z,100841.50
2024-02-04T00:37:41.083Z,100839.81
2024-02-04T00:38:12.887Z,100839.91
2024-02-04T00:38:44.680Z,100836.44
2024-02-04T00:39:16.535Z,100832.06
2024-02-04T00:39:48.347Z,100832.09
2024-02-04T00:40:20.140Z,100839.16
2024-02-04T00:40:53.562Z,100845.19
2024-02-04T00:41:26.113Z,100840.78
2024-02-04T00:41:58.082Z,100841.50
2024-02-04T00:42:30.008Z,100844.16
2024-02-04T00:43:01.975Z,100843.31
2024-02-04T00:43:33.857Z,100839.81
2024-02-04T00:44:05.648Z,100838.19
2024-02-04T00:44:37.577Z,100843.44
2024-02-04T00:45:09.515Z,100841.63
2024-02-04T00:45:41.407Z,100840.78
2024-02-04T00:46:13.207Z,100841.63
2024-02-04T00:46:45.361Z,100845.13
2024-02-04T00:47:17.180Z,100847.72
2024-02-04T00:47:49.036Z,100843.44
2024-02-04T00:48:21.095Z,100840.78
2024-02-04T00:48:53.168Z,100850.28
2024-02-04T00:49:25.223Z,100839.06
2024-02-04T00:49:57.185Z,100843.44
2024-02-04T00:50:29.041Z,100848.53
2024-02-04T00:51:00.815Z,100845.94
2024-02-04T00:51:33.169Z,100849.31
2024-02-04T00:52:05.536Z,100846.84
2024-02-04T00:52:39.723Z,100842.47
2024-02-04T00:53:11.564Z,100850.22
2024-02-04T00:53:43.491Z,100853.59
2024-02-04T00:54:15.349Z,100851.22
2024-02-04T00:54:47.203Z,100848.72
2024-02-04T00:55:19.127Z,100852.06
2024-02-04T00:55:50.920Z,100858.09
2024-02-04T00:56:22.705Z,100845.13
2024-02-04T00:56:55.189Z,100852.94
2024-02-04T00:57:27.018Z,100849.44
2024-02-04T00:58:01.454Z,100849.38
2024-02-04T00:58:33.352Z,100848.53
2024-02-04T00:59:05.344Z,100853.81
2024-02-04T00:59:37.640Z,100854.59
2024-02-04T01:00:10.637Z,100853.84
2024-02-04T01:00:42.586Z,100856.44
2024-02-04T01:01:14.643Z,100855.03
2024-02-04T01:01:46.686Z,100860.22
2024-02-04T01:02:18.567Z,100861.97
2024-02-04T01:02:50.467Z,100863.66
2024-02-04T01:03:22.858Z,100861.81
2024-02-04T01:03:54.913Z,100861.88
2024-02-04T01:04:26.992Z,100861.13
2024-02-04T01:04:58.985Z,100856.75
2024-02-04T01:05:30.877Z,100851.63
2024-02-04T01:06:03.144Z,100854.44
2024-02-04T01:06:43.311Z,100847.53
2024-02-04T01:07:23.375Z,100850.94
2024-02-04T01:07:55.188Z,100854.38
2024-02-04T01:08:27.284Z,100855.31
2024-02-04T01:08:59.158Z,100849.09
2024-02-04T01:09:31.113Z,100849.22
2024-02-04T01:10:06.172Z,100845.78
2024-02-04T01:10:39.921Z,100843.16
2024-02-04T01:11:11.691Z,100845.22
2024-02-04T01:11:43.559Z,100837.25
2024-02-04T01:12:15.365Z,100841.47
2024-02-04T01:12:47.279Z,100847.59
2024-02-04T01:13:19.116Z,100847.53
2024-02-04T01:13:51.039Z,100850.22
2024-02-04T01:14:22.853Z,100845.91
2024-02-04T01:14:54.694Z,100849.44
2024-02-04T01:15:27.233Z,100847.81
2024-02-04T01:15:59.186Z,100850.28
2024-02-04T01:16:31.154Z,100841.81
2024-02-04T01:17:02.961Z,100840.97
2024-02-04T01:17:35.370Z,100842.66
2024-02-04T01:18:07.482Z,100848.69
2024-02-04T01:18:39.559Z,100848.69
2024-02-04T01:19:11.497Z,100843.63
2024-02-04T01:19:43.554Z,100842.00
2024-02-04T01:20:15.780Z,100847.16
2024-02-04T01:20:47.609Z,100835.16
2024-02-04T01:21:19.428Z,100836.00
2024-02-04T01:21:51.397Z,100839.53
2024-02-04T01:22:27.366Z,100845.84
2024-02-04T01:22:59.176Z,100845.03
2024-02-04T01:23:31.117Z,100840.66
2024-02-04T01:24:02.881Z,100840.69
2024-02-04T01:24:34.776Z,100841.53
2024-02-04T01:25:07.725Z,100845.78
2024-02-04T01:25:42.754Z,100835.63
2024-02-04T01:26:16.427Z,100833.88
2024-02-04T01:26:48.281Z,100845.97
2024-02-04T01:27:20.237Z,100828.50
2024-02-04T01:27:52.128Z,100827.69
2024-02-04T01:28:23.978Z,100823.38
2024-02-04T01:28:55.885Z,100828.66
2024-02-04T01:29:27.698Z,100825.22
2024-02-04T01:29:59.524Z,100823.44
2024-02-04T01:30:32.688Z,100822.59
2024-02-04T01:31:05.039Z,100827.06
2024-02-04T01:31:37.232Z,100822.75
2024-02-04T01:32:09.063Z,100823.69
2024-02-04T01:32:40.853Z,100829.81
2024-02-04T01:33:12.879Z,100823.78
2024-02-04T01:33:44.799Z,100824.69
2024-02-04T01:34:16.798Z,100819.47
2024-02-04T01:34:48.784Z,100827.34
2024-02-04T01:35:21.100Z,100824.94
2024-02-04T01:35:53.867Z,100821.41
2024-02-04T01:36:25.725Z,100820.63
2024-02-04T01:36:57.585Z,100824.94
2024-02-04T01:37:29.361Z,100823.25
2024-02-04T01:38:01.154Z,100824.03
2024-02-04T01:38:33.000Z,100826.75
2024-02-04T01:39:05.992Z,100820.81
2024-02-04T01:39:37.825Z,100823.38
2024-02-04T01:40:11.064Z,100819.03
2024-02-04T01:40:42.910Z,100819.03
2024-02-04T01:41:14.855Z,100814.78
2024-02-04T01:41:47.091Z,100816.53
2024-02-04T01:42:19.001Z,100815.56
2024-02-04T01:42:50.866Z,100817.25
2024-02-04T01:43:22.713Z,100814.66
2024-02-04T01:43:55.336Z,100822.47
2024-02-04T01:44:27.298Z,100813.81
2024-02-04T01:44:59.124Z,100809.47
2024-02-04T01:45:31.100Z,100808.66
2024-02-04T01:46:06.568Z,100803.44
2024-02-04T01:46:40.382Z,100802.56
2024-02-04T01:47:12.196Z,100800.84
2024-02-04T01:47:44.186Z,100800.84
2024-02-04T01:48:16.919Z,100803.44
2024-02-04T01:48:49.095Z,100795.66
2024-02-04T01:49:21.404Z,100804.38
2024-02-04T01:49:53.307Z,100797.41
2024-02-04T01:50:25.440Z,100800.06
2024-02-04T01:51:00.712Z,100799.41
2024-02-04T01:51:32.769Z,100801.13
2024-02-04T01:52:06.609Z,100797.63
2024-02-04T01:52:42.414Z,100802.56
2024-02-04T01:53:16.002Z,100797.47
2024-02-04T01:53:49.282Z,100800.06
2024-02-04T01:54:25.072Z,100792.28
2024-02-04T01:54:57.216Z,100800.06
2024-02-04T01:55:29.316Z,100789.66
2024-02-04T01:56:01.257Z,100793.97
2024-02-04T01:56:33.247Z,100793.13
2024-02-04T01:57:05.860Z,100798.22
2024-02-04T01:57:37.812Z,100803.41
2024-02-04T01:58:09.711Z,100804.19
2024-02-04T01:58:43.204Z,100806.72
2024-02-04T01:59:15.099Z,100809.56
2024-02-04T01:59:47.013Z,100803.53
2024-02-04T02:00:19.640Z,100805.22
2024-02-04T02:00:52.607Z,100804.28
2024-02-04T02:01:24.803Z,100796.44
2024-02-04T02:01:57.211Z,100799.81
2024-02-04T02:02:29.977Z,100797.28
2024-02-04T02:03:05.356Z,100793.13
2024-02-04T02:03:40.028Z,100794.81
2024-02-04T02:04:11.991Z,100793.88
2024-02-04T02:04:44.669Z,100792.28
2024-02-04T02:05:16.727Z,100798.47
2024-02-04T02:05:48.619Z,100794.16
2024-02-04T02:06:20.957Z,100788.16
2024-02-04T02:06:55.105Z,100784.66
2024-02-04T02:07:28.674Z,100782.84
2024-02-04T02:08:00.737Z,100779.34
2024-02-04T02:08:33.797Z,100788.06
2024-02-04T02:09:07.262Z,100780.31
2024-02-04T02:09:39.366Z,100782.03
2024-02-04T02:10:12.177Z,100776.72
2024-02-04T02:10:49.190Z,100781.09
2024-02-04T02:11:50.868Z,100781.09
2024-02-04T02:12:35.531Z,100786.28
2024-02-04T02:13:21.716Z,100788.06
2024-02-04T02:14:02.274Z,100791.50
2024-02-04T02:14:39.387Z,100796.81
2024-02-04T02:15:24.963Z,100798.53
2024-02-04T02:16:04.044Z,100797.66
2024-02-04T02:16:35.952Z,100789.00
2024-02-04T02:17:19.401Z,100786.41
2024-02-04T02:18:03.451Z,100790.13
2024-02-04T02:18:53.449Z,100784.19
2024-02-04T02:20:00.660Z,100777.16
2024-02-04T02:21:10.048Z,100771.91
2024-02-04T02:22:08.017Z,100783.28
2024-02-04T02:22:49.781Z,100774.72
2024-02-04T02:23:35.471Z,100775.66
2024-02-04T02:24:25.548Z,100776.44
2024-02-04T02:24:58.542Z,100760.03
2024-02-04T02:25:32.293Z,100763.44
2024-02-04T02:26:05.330Z,100772.19
2024-02-04T02:26:39.737Z,100768.69
2024-02-04T02:27:11.538Z,100767.91
2024-02-04T02:27:50.575Z,100767.00
2024-02-04T02:28:22.374Z,100766.19
2024-02-04T02:28:54.251Z,100766.19
2024-02-04T02:29:26.098Z,100776.59
2024-02-04T02:29:57.999Z,100767.91
2024-02-04T02:30:29.814Z,100769.72
2024-02-04T02:31:04.521Z,100770.53
2024-02-04T02:31:48.091Z,100764.50
2024-02-04T02:32:21.478Z,100767.09
2024-02-04T02:32:53.869Z,100770.69
2024-02-04T02:33:25.960Z,100770.69
2024-02-04T02:33:57.985Z,100769.78
2024-02-04T02:34:38.233Z,100780.94
2024-02-04T02:35:13.705Z,100775.88
2024-02-04T02:35:54.826Z,100771.47
2024-02-04T02:36:35.009Z,100769.78
2024-02-04T02:37:23.321Z,100768.78
2024-02-04T02:38:16.570Z,100775.81
2024-02-04T02:38:59.950Z,100773.13
2024-02-04T02:39:46.893Z,100768.78
2024-02-04T02:40:29.208Z,100773.22
2024-02-04T02:41:08.301Z,100772.38
2024-02-04T02:41:45.084Z,100767.94
2024-02-04T02:42:19.833Z,100770.53
2024-02-04T02:42:54.538Z,100764.56
2024-02-04T02:43:29.365Z,100769.84
2024-02-04T02:44:02.503Z,100771.47
2024-02-04T02:44:37.393Z,100771.41
2024-02-04T02:45:10.387Z,100781.78
2024-02-04T02:45:44.572Z,100774.84
2024-02-04T02:46:16.771Z,100772.31
2024-02-04T02:46:49.229Z,100781.78
2024-02-04T02:47:23.038Z,100781.84
2024-02-04T02:47:55.735Z,100781.78
2024-02-04T02:48:28.714Z,100782.84
2024-02-04T02:49:00.849Z,100787.19
2024-02-04T02:49:32.966Z,100786.28
2024-02-04T02:50:07.090Z,100786.41
2024-02-04T02:50:39.532Z,100780.31
2024-02-04T02:51:11.423Z,100786.34
2024-02-04T02:51:43.319Z,100784.53
2024-02-04T02:52:15.158Z,100788.03
2024-02-04T02:52:47.006Z,100791.66
2024-02-04T02:53:20.922Z,100795.06
2024-02-04T02:53:52.695Z,100800.25
2024-02-04T02:54:24.524Z,100797.66
2024-02-04T02:54:56.397Z,100810.75
2024-02-04T02:55:28.297Z,100803.09
2024-02-04T02:56:00.085Z,100805.56
2024-02-04T02:56:31.877Z,100803.88
2024-02-04T02:57:03.789Z,100795.94
2024-02-04T02:57:35.653Z,100803.03
2024-02-04T02:58:07.520Z,100796.94
2024-02-04T02:58:39.366Z,100797.69
2024-02-04T02:59:11.138Z,100789.19
2024-02-04T02:59:42.962Z,100787.44
2024-02-04T03:00:15.239Z,100786.59
2024-02-04T03:00:47.203Z,100779.72
2024-02-04T03:01:19.182Z,100778.66
2024-02-04T03:01:51.050Z,100782.16
2024-02-04T03:02:22.881Z,100780.41
2024-02-04T03:02:54.766Z,100787.50
2024-02-04T03:03:26.828Z,100785.81
2024-02-04T03:03:58.729Z,100786.59
2024-02-04T03:04:30.694Z,100781.47
2024-02-04T03:05:02.579Z,100776.31
2024-02-04T03:05:34.495Z,100775.41
2024-02-04T03:06:06.767Z,100774.59
2024-02-04T03:06:38.808Z,100772.84
2024-02-04T03:07:10.695Z,100770.31
2024-02-04T03:07:42.625Z,100765.25
2024-02-04T03:08:14.524Z,100770.25
2024-02-04T03:08:46.381Z,100766.88
2024-02-04T03:09:18.171Z,100767.66
2024-02-04T03:09:50.059Z,100768.69
2024-02-04T03:10:21.920Z,100768.63
2024-02-04T03:10:53.791Z,100767.00
2024-02-04T03:11:25.613Z,100776.56
2024-02-04T03:11:57.458Z,100779.03
2024-02-04T03:12:29.318Z,100782.53
2024-02-04T03:13:02.063Z,100781.75
2024-02-04T03:13:33.978Z,100790.47
2024-02-04T03:14:05.807Z,100792.22
2024-02-04T03:14:37.621Z,100794.63
2024-02-04T03:15:09.584Z,100799.72
2024-02-04T03:15:42.331Z,100803.34
2024-02-04T03:16:14.334Z,100799.81
2024-02-04T03:16:46.396Z,100803.41
2024-02-04T03:17:22.203Z,100796.44
2024-02-04T03:17:54.160Z,100791.25
2024-02-04T03:18:26.664Z,100792.94
2024-02-04T03:18:58.531Z,100791.25
2024-02-04T03:19:30.407Z,100794.81
2024-02-04T03:20:02.509Z,100790.47
2024-02-04T03:20:34.542Z,100793.94
2024-02-04T03:21:16.253Z,100793.00
2024-02-04T03:21:48.814Z,100794.63
2024-02-04T03:22:22.443Z,100799.06
2024-02-04T03:22:56.291Z,100792.25
2024-02-04T03:23:28.168Z,100794.94
2024-02-04T03:23:59.976Z,100792.41
2024-02-04T03:24:31.813Z,100794.09
2024-02-04T03:25:04.027Z,100797.47
2024-02-04T03:25:35.921Z,100806.91
2024-02-04T03:26:07.682Z,100802.56
2024-02-04T03:26:39.437Z,100800.88
2024-02-04T03:27:11.267Z,100802.50
2024-02-04T03:27:43.682Z,100804.13
2024-02-04T03:28:15.546Z,100802.50
2024-02-04T03:28:47.409Z,100804.25
2024-02-04T03:29:19.189Z,100806.91
2024-02-04T03:29:51.044Z,100808.47
2024-02-04T03:30:22.985Z,100809.31
2024-02-04T03:30:55.307Z,100806.78
2024-02-04T03:31:27.244Z,100802.44
2024-02-04T03:31:59.065Z,100803.41
2024-02-04T03:32:34.807Z,100800.81
2024-02-04T03:33:07.245Z,100799.91
2024-02-04T03:33:39.288Z,100798.97
2024-02-04T03:34:11.330Z,100798.00
2024-02-04T03:34:44.060Z,100801.50
2024-02-04T03:35:16.078Z,100797.22
2024-02-04T03:35:47.920Z,100804.97
2024-02-04T03:36:22.507Z,100802.50
2024-02-04T03:36:54.532Z,100799.81
2024-02-04T03:37:26.382Z,100794.75
2024-02-04T03:37:58.235Z,100801.59
2024-02-04T03:38:30.116Z,100802.44
2024-02-04T03:39:01.912Z,100793.72
2024-02-04T03:39:33.814Z,100796.38
2024-02-04T03:40:06.319Z,100793.94
2024-02-04T03:40:38.155Z,100795.53
2024-02-04T03:41:09.938Z,100791.25
2024-02-04T03:41:41.734Z,100798.22
2024-02-04T03:42:13.612Z,100799.75
2024-02-04T03:42:45.487Z,100800.75
2024-02-04T03:43:17.309Z,100799.06
2024-02-04T03:43:49.098Z,100799.06
2024-02-04T03:44:20.898Z,100802.44
2024-02-04T03:44:52.671Z,100802.44
2024-02-04T03:45:24.599Z,100807.56
2024-02-04T03:45:56.553Z,100803.16
2024-02-04T03:46:28.563Z,100802.44
2024-02-04T03:47:00.769Z,100808.38
2024-02-04T03:47:32.616Z,100810.97
2024-02-04T03:48:05.303Z,100809.25
2024-02-04T03:48:37.328Z,100810.16
2024-02-04T03:49:09.535Z,100815.25
2024-02-04T03:49:41.746Z,100814.28
2024-02-04T03:50:13.632Z,100808.31
2024-02-04T03:50:45.797Z,100819.47
2024-02-04T03:51:19.417Z,100818.56
2024-02-04T03:51:51.455Z,100818.56
2024-02-04T03:52:23.285Z,100818.56
2024-02-04T03:52:55.101Z,100815.88
2024-02-04T03:53:26.988Z,100821.94
2024-02-04T03:53:58.786Z,100818.47
2024-02-04T03:54:30.587Z,100810.00
2024-02-04T03:55:02.574Z,100822.84
2024-02-04T03:55:34.579Z,100820.25
2024-02-04T03:56:06.598Z,100818.47
2024-02-04T03:56:38.451Z,100816.72
2024-02-04T03:57:10.316Z,100815.88
2024-02-04T03:57:43.279Z,100821.84
2024-02-04T03:58:15.294Z,100813.19
2024-02-04T03:58:47.221Z,100813.19
2024-02-04T03:59:19.075Z,100814.03
2024-02-04T03:59:50.868Z,100817.41
2024-02-04T04:00:22.774Z,100822.53
2024-02-04T04:00:54.909Z,100821.63
2024-02-04T04:01:26.902Z,100815.66
2024-02-04T04:01:59.266Z,100826.00
2024-02-04T04:02:31.130Z,100827.72
2024-02-04T04:03:03.084Z,100827.72
2024-02-04T04:03:34.948Z,100824.25
2024-02-04T04:04:07.011Z,100833.78
2024-02-04T04:04:42.008Z,100822.53
2024-02-04T04:05:14.327Z,100818.16
2024-02-04T04:05:46.412Z,100825.91
2024-02-04T04:06:18.311Z,100819.84
2024-02-04T04:06:50.322Z,100819.78
2024-02-04T04:07:22.301Z,100819.00
2024-02-04T04:07:54.240Z,100824.94
2024-02-04T04:08:26.045Z,100819.69
2024-02-04T04:09:00.240Z,100819.66
2024-02-04T04:09:32.235Z,100817.19
2024-02-04T04:10:04.330Z,100832.75
2024-02-04T04:10:36.260Z,100824.03
2024-02-04T04:11:11.805Z,100818.84
2024-02-04T04:11:43.683Z,100818.91
2024-02-04T04:12:15.600Z,100822.28
2024-02-04T04:12:47.473Z,100829.16
2024-02-04T04:13:19.569Z,100822.25
2024-02-04T04:13:51.337Z,100824.84
2024-02-04T04:14:23.094Z,100823.13
2024-02-04T04:14:54.951Z,100834.38
2024-02-04T04:15:26.827Z,100829.16
2024-02-04T04:15:58.756Z,100836.19
2024-02-04T04:16:30.638Z,100833.59
2024-02-04T04:17:02.467Z,100836.28
2024-02-04T04:17:34.324Z,100840.53
2024-02-04T04:18:06.662Z,100838.72
2024-02-04T04:18:39.495Z,100840.47
2024-02-04T04:19:11.493Z,100832.75
2024-02-04T04:19:43.948Z,100834.38
2024-02-04T04:20:16.309Z,100833.50
2024-02-04T04:20:48.215Z,100829.16
2024-02-04T04:21:20.093Z,100825.72
2024-02-04T04:21:51.988Z,100826.53
2024-02-04T04:22:23.909Z,100816.97
2024-02-04T04:22:55.867Z,100822.25
2024-02-04T04:23:27.898Z,100816.06
2024-02-04T04:23:59.865Z,100813.47
2024-02-04T04:24:31.649Z,100818.75
2024-02-04T04:25:03.810Z,100816.91
2024-02-04T04:25:35.634Z,100820.22
2024-02-04T04:26:07.479Z,100816.72
2024-02-04T04:26:39.243Z,100821.03
2024-02-04T04:27:11.038Z,100813.16
2024-02-04T04:27:42.919Z,100809.72
2024-02-04T04:28:14.793Z,100811.47
2024-02-04T04:28:46.799Z,100802.81
2024-02-04T04:29:18.776Z,100804.56
2024-02-04T04:29:50.597Z,100796.56
2024-02-04T04:30:22.581Z,100807.78
2024-02-04T04:30:54.420Z,100798.25
2024-02-04T04:31:26.286Z,100801.00
2024-02-04T04:31:58.143Z,100808.66
2024-02-04T04:32:29.924Z,100803.53
2024-02-04T04:33:01.837Z,100808.66
2024-02-04T04:33:33.791Z,100813.81
2024-02-04T04:34:05.845Z,100805.94
2024-02-04T04:34:37.856Z,100808.63
2024-02-04T04:35:09.798Z,100807.63
2024-02-04T04:35:41.648Z,100810.22
2024-02-04T04:36:13.478Z,100812.00
2024-02-04T04:36:45.346Z,100818.81
2024-02-04T04:37:17.184Z,100817.00
2024-02-04T04:37:49.071Z,100819.59
2024-02-04T04:38:20.933Z,100819.72
2024-02-04T04:38:52.782Z,100817.97
2024-02-04T04:39:24.645Z,100820.63
2024-02-04T04:39:56.565Z,100820.63
2024-02-04T04:40:28.380Z,100825.06
2024-02-04T04:41:00.197Z,100821.47
2024-02-04T04:41:32.394Z,100825.91
2024-02-04T04:42:04.434Z,100828.44
2024-02-04T04:42:36.256Z,100818.09
2024-02-04T04:43:08.074Z,100818.28
2024-02-04T04:43:39.936Z,100810.41
2024-02-04T04:44:11.781Z,100802.56
2024-02-04T04:44:43.601Z,100808.63
2024-02-04T04:45:15.983Z,100806.13
2024-02-04T04:45:47.854Z,100806.06
2024-02-04T04:46:19.785Z,100807.81
2024-02-04T04:46:51.736Z,100806.91
2024-02-04T04:47:23.537Z,100807.88
2024-02-04T04:47:55.573Z,100803.59
2024-02-04T04:48:27.684Z,100806.19
2024-02-04T04:48:59.992Z,100805.41
2024-02-04T04:49:32.056Z,100808.00
2024-02-04T04:50:04.495Z,100805.41
2024-02-04T04:50:36.758Z,100805.22
2024-02-04T04:51:12.969Z,100797.47
2024-02-04T04:51:48.070Z,100798.31
2024-02-04T04:52:19.935Z,100801.75
2024-02-04T04:52:51.792Z,100804.50
2024-02-04T04:53:23.731Z,100804.50
2024-02-04T04:53:55.571Z,100808.84
2024-02-04T04:54:29.334Z,100806.38
2024-02-04T04:55:01.242Z,100808.13
2024-02-04T04:55:33.141Z,100808.94
2024-02-04T04:56:05.696Z,100806.38
2024-02-04T04:56:43.241Z,100805.59
2024-02-04T04:57:15.781Z,100808.13
2024-02-04T04:57:48.334Z,100804.59
2024-02-04T04:58:20.208Z,100803.66
2024-02-04T04:58:52.132Z,100802.00
2024-02-04T04:59:24.072Z,100792.41
2024-02-04T04:59:55.930Z,100787.97
2024-02-04T05:00:27.895Z,100788.91
2024-02-04T05:00:59.765Z,100779.44
2024-02-04T05:01:31.695Z,100778.56
2024-02-04T05:02:03.764Z,100786.47
2024-02-04T05:02:35.647Z,100781.28
2024-02-04T05:03:07.507Z,100782.13
2024-02-04T05:03:39.502Z,100786.41
2024-02-04T05:04:11.656Z,100786.41
2024-02-04T05:04:46.085Z,100790.97
2024-02-04T05:05:18.056Z,100787.72
2024-02-04T05:05:49.885Z,100790.34
2024-02-04T05:06:21.781Z,100797.13
2024-02-04T05:06:53.686Z,100798.88
2024-02-04T05:07:25.973Z,100796.38
2024-02-04T05:07:57.926Z,100792.75
2024-02-04T05:08:29.885Z,100800.53
2024-02-04T05:09:01.762Z,100793.63
2024-02-04T05:09:33.679Z,100789.44
2024-02-04T05:10:06.243Z,100804.91
2024-02-04T05:10:38.040Z,100800.63
2024-02-04T05:11:09.954Z,100801.56
2024-02-04T05:11:41.775Z,100801.56
2024-02-04T05:12:13.634Z,100810.19
2024-02-04T05:12:45.468Z,100800.69
2024-02-04T05:13:17.271Z,100805.75
2024-02-04T05:13:49.096Z,100807.53
2024-02-04T05:14:21.174Z,100798.03
2024-02-04T05:14:52.975Z,100803.16
2024-02-04T05:15:26.243Z,100801.47
2024-02-04T05:15:58.155Z,100801.53
2024-02-04T05:16:30.259Z,100797.97
2024-02-04T05:17:02.082Z,100800.56
2024-02-04T05:17:35.025Z,100809.16
2024-02-04T05:18:07.184Z,100816.00
2024-02-04T05:18:39.390Z,100817.88
2024-02-04T05:19:11.483Z,100820.41
2024-02-04T05:19:43.986Z,100820.59
2024-02-04T05:20:16.088Z,100818.00
2024-02-04T05:20:49.553Z,100822.34
2024-02-04T05:21:21.371Z,100825.91
2024-02-04T05:21:53.203Z,100818.75
2024-02-04T05:22:25.347Z,100818.75
2024-02-04T05:22:58.653Z,100822.19
2024-02-04T05:23:30.485Z,100825.63
2024-02-04T05:24:02.255Z,100820.50
2024-02-04T05:24:34.114Z,100821.25
2024-02-04T05:25:07.539Z,100817.81
2024-02-04T05:25:39.656Z,100820.41
2024-02-04T05:26:11.428Z,100818.75
2024-02-04T05:26:43.187Z,100821.25
2024-02-04T05:27:14.944Z,100815.28
2024-02-04T05:27:46.863Z,100812.72
2024-02-04T05:28:18.777Z,100807.53
2024-02-04T05:28:50.683Z,100807.66
2024-02-04T05:29:22.551Z,100809.28
2024-02-04T05:29:54.468Z,100808.38
2024-02-04T05:30:26.289Z,100813.56
2024-02-04T05:30:58.167Z,100817.91
2024-02-04T05:31:30.000Z,100809.44
2024-02-04T05:32:01.879Z,100806.78
2024-02-04T05:32:34.056Z,100805.00
2024-02-04T05:33:05.955Z,100806.94
2024-02-04T05:33:37.829Z,100804.31
2024-02-04T05:34:10.223Z,100799.88
2024-02-04T05:34:42.170Z,100803.41
2024-02-04T05:35:14.247Z,100805.19
2024-02-04T05:35:46.148Z,100806.03
2024-02-04T05:36:17.948Z,100810.41
2024-02-04T05:36:49.931Z,100814.88
2024-02-04T05:37:21.761Z,100819.19
2024-02-04T05:37:53.588Z,100816.63
2024-02-04T05:38:25.524Z,100822.75
2024-02-04T05:38:57.385Z,100815.03
2024-02-04T05:39:29.347Z,100819.34
2024-02-04T05:40:01.306Z,100812.41
2024-02-04T05:40:33.354Z,100823.69
2024-02-04T05:41:05.621Z,100820.56
2024-02-04T05:41:37.394Z,100822.25
2024-02-04T05:42:09.234Z,100821.38
2024-02-04T05:42:41.097Z,100817.78
2024-02-04T05:43:13.620Z,100821.38
2024-02-04T05:43:46.598Z,100817.91
2024-02-04T05:44:18.434Z,100822.22
2024-02-04T05:44:50.532Z,100818.88
2024-02-04T05:45:22.729Z,100814.50
2024-02-04T05:45:54.691Z,100812.03
2024-02-04T05:46:28.940Z,100809.63
2024-02-04T05:47:01.263Z,100804.34
2024-02-04T05:47:33.372Z,100813.81
2024-02-04T05:48:06.138Z,100811.28
2024-02-04T05:48:38.243Z,100810.28
2024-02-04T05:49:10.284Z,100811.28
2024-02-04T05:49:42.699Z,100814.88
2024-02-04T05:50:15.374Z,100817.41
2024-02-04T05:50:47.240Z,100808.84
2024-02-04T05:51:19.057Z,100812.28
2024-02-04T05:51:50.855Z,100808.84
2024-02-04T05:52:22.711Z,100818.38
2024-02-04T05:52:54.522Z,100810.66
2024-02-04T05:53:26.290Z,100817.59
2024-02-04T05:53:58.170Z,100816.09
2024-02-04T05:54:30.208Z,100817.72
2024-02-04T05:55:04.833Z,100825.50
2024-02-04T05:55:37.371Z,100825.44
2024-02-04T05:56:09.469Z,100817.66
2024-02-04T05:56:41.402Z,100820.44
2024-02-04T05:57:13.521Z,100830.91
2024-02-04T05:57:45.310Z,100832.66
2024-02-04T05:58:17.254Z,100824.88
2024-02-04T05:58:49.110Z,100831.78
2024-02-04T05:59:20.921Z,100823.03
2024-02-04T05:59:54.093Z,100835.19
2024-02-04T06:00:27.489Z,100830.28
2024-02-04T06:00:59.384Z,100836.19
2024-02-04T06:01:31.242Z,100820.66
2024-02-04T06:02:03.251Z,100838.78
2024-02-04T06:02:35.318Z,100834.50
2024-02-04T06:03:07.907Z,100837.84
2024-02-04T06:03:40.044Z,100833.50
2024-02-04T06:04:12.065Z,100836.94
2024-02-04T06:04:44.012Z,100836.03
2024-02-04T06:05:15.995Z,100831.69
2024-02-04T06:05:47.994Z,100836.94
2024-02-04T06:06:22.800Z,100838.72
2024-02-04T06:06:54.716Z,100835.47
2024-02-04T06:07:26.544Z,100839.75
2024-02-04T06:07:58.457Z,100836.38
2024-02-04T06:08:30.951Z,100840.75
2024-02-04T06:09:02.808Z,100835.47
2024-02-04T06:09:35.174Z,100830.22
2024-02-04T06:10:10.846Z,100827.56
2024-02-04T06:10:43.579Z,100840.66
2024-02-04T06:11:16.009Z,100843.16
2024-02-04T06:11:47.884Z,100843.16
2024-02-04T06:12:19.712Z,100839.75
2024-02-04T06:12:51.572Z,100846.78
2024-02-04T06:13:23.373Z,100846.88
2024-02-04T06:13:55.536Z,100849.31
2024-02-04T06:14:27.375Z,100840.66
2024-02-04T06:14:59.205Z,100844.19